createdAt,value
2018-03-15T00:00:27.087Z,7.68
2018-03-15T00:01:27.069Z,7.67
2018-03-15T00:02:27.071Z,7.64
2018-03-15T00:03:27.038Z,7.64
2018-03-15T00:04:27.039Z,7.68
2018-03-15T00:05:27.004Z,7.68
2018-03-15T00:06:26.981Z,7.72
2018-03-15T00:07:26.969Z,7.72
2018-03-15T00:08:26.951Z,7.64
2018-03-15T00:09:26.959Z,7.64
2018-03-15T00:10:26.914Z,7.63
2018-03-15T00:11:26.908Z,7.64
2018-03-15T00:12:26.927Z,7.71
2018-03-15T00:13:26.884Z,7.64
2018-03-15T00:14:26.852Z,7.64
2018-03-15T00:15:26.853Z,7.69
2018-03-15T00:16:26.832Z,7.61
2018-03-15T00:17:26.801Z,7.67
2018-03-15T00:18:26.786Z,7.61
2018-03-15T00:19:26.784Z,7.53
2018-03-15T00:20:26.767Z,7.53
2018-03-15T00:21:26.749Z,7.53
2018-03-15T00:22:26.717Z,7.48
2018-03-15T00:23:26.689Z,7.48
2018-03-15T00:24:26.687Z,7.50
2018-03-15T00:25:26.665Z,7.46
2018-03-15T00:26:47.656Z,7.52
2018-03-15T00:27:26.631Z,7.53
2018-03-15T00:28:26.613Z,7.49
2018-03-15T00:29:26.602Z,7.48
2018-03-15T00:30:26.576Z,7.43
2018-03-15T00:31:26.581Z,7.50
2018-03-15T00:32:26.566Z,7.48
2018-03-15T00:33:26.518Z,7.45
2018-03-15T00:34:26.517Z,7.48
2018-03-15T00:35:26.488Z,7.40
2018-03-15T00:36:26.484Z,7.42
2018-03-15T00:37:26.473Z,7.46
2018-03-15T00:38:26.447Z,7.40
2018-03-15T00:39:26.427Z,7.42
2018-03-15T00:40:26.401Z,7.48
2018-03-15T00:41:26.404Z,7.46
2018-03-15T00:42:26.372Z,7.46
2018-03-15T00:43:26.352Z,7.48
2018-03-15T00:44:26.338Z,7.45
2018-03-15T00:45:26.313Z,7.57
2018-03-15T00:46:26.303Z,7.53
2018-03-15T00:47:26.302Z,7.49
2018-03-15T00:48:26.267Z,7.40
2018-03-15T00:49:26.262Z,7.42
2018-03-15T00:50:26.237Z,7.40
2018-03-15T00:51:26.218Z,7.35
2018-03-15T00:52:26.211Z,7.42
2018-03-15T00:53:26.196Z,7.46
2018-03-15T00:54:26.176Z,7.37
2018-03-15T00:55:26.138Z,7.43
2018-03-15T00:56:26.124Z,7.39
2018-03-15T00:57:26.119Z,7.49
2018-03-15T00:58:26.124Z,7.43
2018-03-15T00:59:26.080Z,7.40
2018-03-15T01:00:26.071Z,7.40
2018-03-15T01:01:26.043Z,7.45
2018-03-15T01:02:26.030Z,7.46
2018-03-15T01:03:26.059Z,7.37
2018-03-15T01:04:26.004Z,7.35
2018-03-15T01:05:25.973Z,7.34
2018-03-15T01:06:25.957Z,7.32
2018-03-15T01:07:25.943Z,7.30
2018-03-15T01:08:25.938Z,7.31
2018-03-15T01:09:25.903Z,7.25
2018-03-15T01:10:25.886Z,7.17
2018-03-15T01:11:25.891Z,7.32
2018-03-15T01:12:25.856Z,7.17
2018-03-15T01:13:25.839Z,7.31
2018-03-15T01:14:25.819Z,7.28
2018-03-15T01:15:25.821Z,7.24
2018-03-15T01:16:25.799Z,7.30
2018-03-15T01:17:25.782Z,7.32
2018-03-15T01:18:25.759Z,7.31
2018-03-15T01:19:25.737Z,7.35
2018-03-15T01:20:25.720Z,7.25
2018-03-15T01:21:25.720Z,7.25
2018-03-15T01:22:25.698Z,7.30
2018-03-15T01:23:25.663Z,7.16
2018-03-15T01:24:25.647Z,7.31
2018-03-15T01:25:25.629Z,7.24
2018-03-15T01:26:25.615Z,7.15
2018-03-15T01:27:25.612Z,7.12
2018-03-15T01:28:25.575Z,7.07
2018-03-15T01:29:25.561Z,7.15
2018-03-15T01:30:25.545Z,7.15
2018-03-15T01:31:25.531Z,7.17
2018-03-15T01:32:25.509Z,7.13
2018-03-15T01:33:25.505Z,7.15
2018-03-15T01:34:25.480Z,7.15
2018-03-15T01:35:25.456Z,7.12
2018-03-15T01:36:25.440Z,7.13
2018-03-15T01:37:25.418Z,7.09
2018-03-15T01:38:25.430Z,7.07
2018-03-15T01:39:25.422Z,7.16
2018-03-15T01:40:25.368Z,7.12
2018-03-15T01:41:25.348Z,7.15
2018-03-15T01:42:25.336Z,7.15
2018-03-15T01:43:25.332Z,7.10
2018-03-15T01:44:25.314Z,7.10
2018-03-15T01:45:25.285Z,7.15
2018-03-15T01:46:25.263Z,7.10
2018-03-15T01:47:25.246Z,7.15
2018-03-15T01:48:25.242Z,7.10
2018-03-15T01:49:25.209Z,7.06
2018-03-15T01:50:25.199Z,6.99
2018-03-15T01:51:25.178Z,7.02
2018-03-15T01:52:25.160Z,6.98
2018-03-15T01:53:25.142Z,7.02
2018-03-15T01:54:25.434Z,6.99
2018-03-15T01:55:25.104Z,6.98
2018-03-15T01:56:25.083Z,6.92
2018-03-15T01:57:25.066Z,6.91
2018-03-15T01:58:25.059Z,6.91
2018-03-15T01:59:25.041Z,6.92
2018-03-15T02:00:25.035Z,7.03
2018-03-15T02:01:25.002Z,6.92
2018-03-15T02:02:24.985Z,6.92
2018-03-15T02:03:24.967Z,6.92
2018-03-15T02:04:24.946Z,6.87
2018-03-15T02:05:24.946Z,6.92
2018-03-15T02:06:24.927Z,6.95
2018-03-15T02:07:24.890Z,6.89
2018-03-15T02:08:24.877Z,6.89
2018-03-15T02:09:24.861Z,6.84
2018-03-15T02:10:24.861Z,6.79
2018-03-15T02:11:24.839Z,6.94
2018-03-15T02:12:24.812Z,6.89
2018-03-15T02:13:24.794Z,6.92
2018-03-15T02:14:24.773Z,6.89
2018-03-15T02:15:24.758Z,6.99
2018-03-15T02:16:24.754Z,6.95
2018-03-15T02:17:24.724Z,6.88
2018-03-15T02:18:24.705Z,6.91
2018-03-15T02:19:24.680Z,6.98
2018-03-15T02:20:24.671Z,6.98
2018-03-15T02:21:24.677Z,6.89
2018-03-15T02:22:24.636Z,6.91
2018-03-15T02:23:24.613Z,6.81
2018-03-15T02:24:24.598Z,6.87
2018-03-15T02:25:24.576Z,6.91
2018-03-15T02:26:24.558Z,6.91
2018-03-15T02:27:24.565Z,6.87
2018-03-15T02:28:24.527Z,6.85
2018-03-15T02:29:24.510Z,6.88
2018-03-15T02:30:24.492Z,6.80
2018-03-15T02:31:24.474Z,6.91
2018-03-15T02:32:24.461Z,6.84
2018-03-15T02:33:24.461Z,6.81
2018-03-15T02:34:24.430Z,6.87
2018-03-15T02:35:24.402Z,6.81
2018-03-15T02:36:24.388Z,6.81
2018-03-15T02:37:24.368Z,6.70
2018-03-15T02:38:24.372Z,6.76
2018-03-15T02:39:24.336Z,6.74
2018-03-15T02:40:24.315Z,6.79
2018-03-15T02:41:24.302Z,6.74
2018-03-15T02:42:24.281Z,6.81
2018-03-15T02:43:24.256Z,6.79
2018-03-15T02:44:24.257Z,6.77
2018-03-15T02:45:24.225Z,6.74
2018-03-15T02:46:24.210Z,6.80
2018-03-15T02:47:24.192Z,6.69
2018-03-15T02:48:24.168Z,6.70
2018-03-15T02:49:24.171Z,6.69
2018-03-15T02:50:24.141Z,6.73
2018-03-15T02:51:24.121Z,6.71
2018-03-15T02:52:24.104Z,6.58
2018-03-15T02:53:24.087Z,6.62
2018-03-15T02:54:24.092Z,6.67
2018-03-15T02:55:24.055Z,6.64
2018-03-15T02:56:24.029Z,6.56
2018-03-15T02:57:24.016Z,6.64
2018-03-15T02:58:23.996Z,6.61
2018-03-15T02:59:23.992Z,6.55
2018-03-15T03:00:23.977Z,6.66
2018-03-15T03:01:23.941Z,6.51
2018-03-15T03:02:23.925Z,6.56
2018-03-15T03:03:23.922Z,6.61
2018-03-15T03:04:23.892Z,6.55
2018-03-15T03:05:23.868Z,6.52
2018-03-15T03:06:23.856Z,6.44
2018-03-15T03:07:23.848Z,6.46
2018-03-15T03:08:23.821Z,6.55
2018-03-15T03:09:23.820Z,6.59
2018-03-15T03:10:23.782Z,6.61
2018-03-15T03:11:23.766Z,6.56
2018-03-15T03:12:23.751Z,6.55
2018-03-15T03:13:23.759Z,6.51
2018-03-15T03:14:23.730Z,6.54
2018-03-15T03:15:23.728Z,6.62
2018-03-15T03:16:23.690Z,6.46
2018-03-15T03:17:23.700Z,6.49
2018-03-15T03:18:23.642Z,6.59
2018-03-15T03:19:23.623Z,6.56
2018-03-15T03:20:23.623Z,6.59
2018-03-15T03:21:23.589Z,6.58
2018-03-15T03:22:23.568Z,6.66
2018-03-15T03:23:23.552Z,6.67
2018-03-15T03:24:23.553Z,6.62
2018-03-15T03:25:23.517Z,6.56
2018-03-15T03:26:23.495Z,6.66
2018-03-15T03:27:23.502Z,6.52
2018-03-15T03:28:23.468Z,6.54
2018-03-15T03:29:23.500Z,6.52
2018-03-15T03:30:23.429Z,6.44
2018-03-15T03:31:23.415Z,6.49
2018-03-15T03:32:23.393Z,6.51
2018-03-15T03:33:23.371Z,6.44
2018-03-15T03:34:23.350Z,6.48
2018-03-15T03:35:23.357Z,6.49
2018-03-15T03:36:23.330Z,6.52
2018-03-15T03:37:23.304Z,6.52
2018-03-15T03:38:23.286Z,6.49
2018-03-15T03:39:23.267Z,6.52
2018-03-15T03:40:23.250Z,6.52
2018-03-15T03:41:23.243Z,6.44
2018-03-15T03:42:23.211Z,6.51
2018-03-15T03:43:23.196Z,6.55
2018-03-15T03:44:23.177Z,6.55
2018-03-15T03:45:23.160Z,6.44
2018-03-15T03:46:23.159Z,6.52
2018-03-15T03:47:23.125Z,6.49
2018-03-15T03:48:23.119Z,6.52
2018-03-15T03:49:23.088Z,6.49
2018-03-15T03:50:23.077Z,6.52
2018-03-15T03:51:23.075Z,6.48
2018-03-15T03:52:23.027Z,6.46
2018-03-15T03:53:23.036Z,6.51
2018-03-15T03:54:22.999Z,6.40
2018-03-15T03:55:23.001Z,6.48
2018-03-15T03:56:22.963Z,6.56
2018-03-15T03:57:22.944Z,6.46
2018-03-15T03:58:22.923Z,6.49
2018-03-15T03:59:22.927Z,6.54
2018-03-15T04:00:22.893Z,6.51
2018-03-15T04:01:22.899Z,6.54
2018-03-15T04:02:22.858Z,6.55
2018-03-15T04:03:22.886Z,6.48
2018-03-15T04:04:22.821Z,6.43
2018-03-15T04:05:22.803Z,6.56
2018-03-15T04:06:22.804Z,6.49
2018-03-15T04:07:22.762Z,6.46
2018-03-15T04:08:22.762Z,6.48
2018-03-15T04:09:22.727Z,6.52
2018-03-15T04:10:22.729Z,6.49
2018-03-15T04:11:22.737Z,6.43
2018-03-15T04:12:22.675Z,6.48
2018-03-15T04:13:22.667Z,6.49
2018-03-15T04:14:22.637Z,6.44
2018-03-15T04:15:22.618Z,6.40
2018-03-15T04:16:22.617Z,6.46
2018-03-15T04:17:22.600Z,6.46
2018-03-15T04:18:22.567Z,6.48
2018-03-15T04:19:22.551Z,6.48
2018-03-15T04:20:22.541Z,6.41
2018-03-15T04:21:22.515Z,6.48
2018-03-15T04:22:22.525Z,6.52
2018-03-15T04:23:22.476Z,6.49
2018-03-15T04:24:22.460Z,6.51
2018-03-15T04:25:22.438Z,6.54
2018-03-15T04:26:22.425Z,6.44
2018-03-15T04:27:22.406Z,6.55
2018-03-15T04:28:22.453Z,6.58
2018-03-15T04:29:22.370Z,6.46
2018-03-15T04:30:22.350Z,6.51
2018-03-15T04:31:22.347Z,6.48
2018-03-15T04:32:22.348Z,6.48
2018-03-15T04:33:22.316Z,6.43
2018-03-15T04:34:22.274Z,6.46
2018-03-15T04:35:22.260Z,6.49
2018-03-15T04:36:22.263Z,6.36
2018-03-15T04:37:22.256Z,6.40
2018-03-15T04:38:22.207Z,6.31
2018-03-15T04:39:22.200Z,6.34
2018-03-15T04:40:22.176Z,6.33
2018-03-15T04:41:22.170Z,6.49
2018-03-15T04:42:22.142Z,6.38
2018-03-15T04:43:22.151Z,6.38
2018-03-15T04:44:22.104Z,6.36
2018-03-15T04:45:22.082Z,6.37
2018-03-15T04:46:22.064Z,6.38
2018-03-15T04:47:22.040Z,6.44
2018-03-15T04:48:22.037Z,6.38
2018-03-15T04:49:22.008Z,6.46
2018-03-15T04:50:21.991Z,6.48
2018-03-15T04:51:21.970Z,6.44
2018-03-15T04:52:21.961Z,6.46
2018-03-15T04:53:21.953Z,6.44
2018-03-15T04:54:21.923Z,6.38
2018-03-15T04:55:21.923Z,6.49
2018-03-15T04:56:21.903Z,6.49
2018-03-15T04:57:21.869Z,6.41
2018-03-15T04:58:21.854Z,6.46
2018-03-15T04:59:21.831Z,6.46
2018-03-15T05:00:21.827Z,6.48
2018-03-15T05:01:21.797Z,6.51
2018-03-15T05:02:21.778Z,6.33
2018-03-15T05:03:21.761Z,6.34
2018-03-15T05:04:21.743Z,6.51
2018-03-15T05:05:21.722Z,6.49
2018-03-15T05:06:21.715Z,6.51
2018-03-15T05:07:21.686Z,6.48
2018-03-15T05:08:21.669Z,6.54
2018-03-15T05:09:21.653Z,6.36
2018-03-15T05:10:21.631Z,6.49
2018-03-15T05:11:21.624Z,6.46
2018-03-15T05:12:21.590Z,6.48
2018-03-15T05:13:21.577Z,6.40
2018-03-15T05:14:21.564Z,6.48
2018-03-15T05:15:21.542Z,6.34
2018-03-15T05:16:21.541Z,6.51
2018-03-15T05:17:21.506Z,6.33
2018-03-15T05:18:21.487Z,6.49
2018-03-15T05:19:21.470Z,6.36
2018-03-15T05:20:21.453Z,6.40
2018-03-15T05:21:21.436Z,6.34
2018-03-15T05:22:21.434Z,6.43
2018-03-15T05:23:21.397Z,6.34
2018-03-15T05:24:21.378Z,6.33
2018-03-15T05:25:21.362Z,6.40
2018-03-15T05:26:21.343Z,6.37
2018-03-15T05:27:21.325Z,6.43
2018-03-15T05:28:21.336Z,6.37
2018-03-15T05:29:21.284Z,6.33
2018-03-15T05:30:21.269Z,6.31
2018-03-15T05:31:21.251Z,6.46
2018-03-15T05:32:21.247Z,6.46
2018-03-15T05:33:21.235Z,6.49
2018-03-15T05:34:21.199Z,6.52
2018-03-15T05:35:21.176Z,6.48
2018-03-15T05:36:21.172Z,6.40
2018-03-15T05:37:21.139Z,6.33
2018-03-15T05:38:21.135Z,6.49
2018-03-15T05:39:21.124Z,6.48
2018-03-15T05:40:21.093Z,6.40
2018-03-15T05:41:21.072Z,6.44
2018-03-15T05:42:21.048Z,6.44
2018-03-15T05:43:21.068Z,6.51
2018-03-15T05:44:21.031Z,6.49
2018-03-15T05:45:21.032Z,6.51
2018-03-15T05:46:20.983Z,6.44
2018-03-15T05:47:20.963Z,6.51
2018-03-15T05:48:20.946Z,6.49
2018-03-15T05:49:20.987Z,6.51
2018-03-15T05:50:20.928Z,6.61
2018-03-15T05:51:20.892Z,6.56
2018-03-15T05:52:20.874Z,6.52
2018-03-15T05:53:20.854Z,6.54
2018-03-15T05:54:20.838Z,6.49
2018-03-15T05:55:20.823Z,6.48
2018-03-15T05:56:20.824Z,6.44
2018-03-15T05:57:20.782Z,6.46
2018-03-15T05:58:20.765Z,6.48
2018-03-15T05:59:20.769Z,6.48
2018-03-15T06:00:20.746Z,6.51
2018-03-15T06:01:20.718Z,6.51
2018-03-15T06:02:20.693Z,6.52
2018-03-15T06:03:20.675Z,6.52
2018-03-15T06:04:20.662Z,6.51
2018-03-15T06:05:20.639Z,6.58
2018-03-15T06:06:20.647Z,6.56
2018-03-15T06:07:20.596Z,6.61
2018-03-15T06:08:20.582Z,6.64
2018-03-15T06:09:20.567Z,6.59
2018-03-15T06:10:20.547Z,6.56
2018-03-15T06:11:20.552Z,6.62
2018-03-15T06:12:20.545Z,6.69
2018-03-15T06:13:20.492Z,6.66
2018-03-15T06:14:20.502Z,6.73
2018-03-15T06:15:20.459Z,6.67
2018-03-15T06:16:20.440Z,6.66
2018-03-15T06:17:20.420Z,6.66
2018-03-15T06:18:20.440Z,6.71
2018-03-15T06:19:20.388Z,6.74
2018-03-15T06:20:20.369Z,6.79
2018-03-15T06:21:20.364Z,6.80
2018-03-15T06:22:20.347Z,6.79
2018-03-15T06:23:20.314Z,6.81
2018-03-15T06:24:20.318Z,6.87
2018-03-15T06:25:20.275Z,6.84
2018-03-15T06:26:20.264Z,6.79
2018-03-15T06:27:20.259Z,6.84
2018-03-15T06:28:20.228Z,6.84
2018-03-15T06:29:20.219Z,6.81
2018-03-15T06:30:20.194Z,6.77
2018-03-15T06:31:20.172Z,6.89
2018-03-15T06:32:20.152Z,6.85
2018-03-15T06:33:20.152Z,6.84
2018-03-15T06:34:20.121Z,6.89
2018-03-15T06:35:20.120Z,6.87
2018-03-15T06:36:20.152Z,6.84
2018-03-15T06:37:20.066Z,6.95
2018-03-15T06:38:20.046Z,6.94
2018-03-15T06:39:20.036Z,6.91
2018-03-15T06:40:20.028Z,6.92
2018-03-15T06:41:19.992Z,6.91
2018-03-15T06:42:19.972Z,6.94
2018-03-15T06:43:19.971Z,6.98
2018-03-15T06:44:19.957Z,6.95
2018-03-15T06:45:19.924Z,6.98
2018-03-15T06:46:19.904Z,6.97
2018-03-15T06:47:19.898Z,6.95
2018-03-15T06:48:19.868Z,6.97
2018-03-15T06:49:19.871Z,6.99
2018-03-15T06:50:19.830Z,7.02
2018-03-15T06:51:19.818Z,7.05
2018-03-15T06:52:19.805Z,7.03
2018-03-15T06:53:19.796Z,6.99
2018-03-15T06:54:19.780Z,6.99
2018-03-15T06:55:19.744Z,7.03
2018-03-15T06:56:19.744Z,6.98
2018-03-15T06:57:19.710Z,7.17
2018-03-15T06:58:19.712Z,7.07
2018-03-15T06:59:19.689Z,7.16
2018-03-15T07:00:19.655Z,7.13
2018-03-15T07:01:19.665Z,7.21
2018-03-15T07:02:19.624Z,7.17
2018-03-15T07:03:19.597Z,7.21
2018-03-15T07:04:19.582Z,7.21
2018-03-15T07:05:19.583Z,7.25
2018-03-15T07:06:19.575Z,7.21
2018-03-15T07:07:19.532Z,7.30
2018-03-15T07:08:19.527Z,7.30
2018-03-15T07:09:19.496Z,7.31
2018-03-15T07:10:19.555Z,7.23
2018-03-15T07:11:19.464Z,7.24
2018-03-15T07:12:19.446Z,7.24
2018-03-15T07:13:19.426Z,7.25
2018-03-15T07:14:19.408Z,7.24
2018-03-15T07:15:21.940Z,7.24
2018-03-15T07:16:19.384Z,7.31
2018-03-15T07:17:19.352Z,7.30
2018-03-15T07:18:19.345Z,7.57
2018-03-15T07:19:19.324Z,7.97
2018-03-15T07:20:19.302Z,8.16
2018-03-15T07:21:19.302Z,8.48
2018-03-15T07:22:19.270Z,8.47
2018-03-15T07:23:19.249Z,8.40
2018-03-15T07:24:19.235Z,8.19
2018-03-15T07:25:19.217Z,8.08
2018-03-15T07:26:19.228Z,8.01
2018-03-15T07:27:19.179Z,8.04
2018-03-15T07:28:19.177Z,8.00
2018-03-15T07:29:19.146Z,8.01
2018-03-15T07:30:19.130Z,8.02
2018-03-15T07:31:19.113Z,7.93
2018-03-15T07:32:19.091Z,8.05
2018-03-15T07:33:19.107Z,7.95
2018-03-15T07:34:19.058Z,7.97
2018-03-15T07:35:19.042Z,8.01
2018-03-15T07:36:19.031Z,8.01
2018-03-15T07:37:19.016Z,8.04
2018-03-15T07:38:19.002Z,8.05
2018-03-15T07:39:19.005Z,8.12
2018-03-15T07:40:18.955Z,8.08
2018-03-15T07:41:18.936Z,8.08
2018-03-15T07:42:18.920Z,8.11
2018-03-15T07:43:18.927Z,8.11
2018-03-15T07:44:18.888Z,8.07
2018-03-15T07:45:18.870Z,8.18
2018-03-15T07:46:18.857Z,8.22
2018-03-15T07:47:18.830Z,8.22
2018-03-15T07:48:18.815Z,8.33
2018-03-15T07:49:18.823Z,8.36
2018-03-15T07:50:18.782Z,8.36
2018-03-15T07:51:18.764Z,8.43
2018-03-15T07:52:18.748Z,8.36
2018-03-15T07:53:18.728Z,8.38
2018-03-15T07:54:18.712Z,8.40
2018-03-15T07:55:18.713Z,8.43
2018-03-15T07:56:18.681Z,8.47
2018-03-15T07:57:18.660Z,8.44
2018-03-15T07:58:18.642Z,8.41
2018-03-15T07:59:18.632Z,8.41
2018-03-15T08:00:18.631Z,8.43
2018-03-15T08:01:18.591Z,8.50
2018-03-15T08:02:18.578Z,8.53
2018-03-15T08:03:18.556Z,8.61
2018-03-15T08:04:18.562Z,8.52
2018-03-15T08:05:18.529Z,8.55
2018-03-15T08:06:18.533Z,8.52
2018-03-15T08:07:18.498Z,8.58
2018-03-15T08:08:18.477Z,8.63
2018-03-15T08:09:18.480Z,8.77
2018-03-15T08:10:18.470Z,8.81
2018-03-15T08:11:18.492Z,8.91
2018-03-15T08:12:18.409Z,8.80
2018-03-15T08:13:18.399Z,8.87
2018-03-15T08:14:18.403Z,8.83
2018-03-15T08:15:18.361Z,8.95
2018-03-15T08:16:18.360Z,8.98
2018-03-15T08:17:18.326Z,8.99
2018-03-15T08:18:18.345Z,9.01
2018-03-15T08:19:18.292Z,9.08
2018-03-15T08:20:18.365Z,9.15
2018-03-15T08:21:18.276Z,9.15
2018-03-15T08:22:18.246Z,9.21
2018-03-15T08:23:18.228Z,9.15
2018-03-15T08:24:18.214Z,9.13
2018-03-15T08:25:18.197Z,9.23
2018-03-15T08:26:18.194Z,9.18
2018-03-15T08:27:18.161Z,9.20
2018-03-15T08:28:18.145Z,9.18
2018-03-15T08:29:18.133Z,9.26
2018-03-15T08:30:18.134Z,9.31
2018-03-15T08:31:18.123Z,9.33
2018-03-15T08:32:18.089Z,9.31
2018-03-15T08:33:18.067Z,9.43
2018-03-15T08:34:18.043Z,9.43
2018-03-15T08:35:18.029Z,9.43
2018-03-15T08:36:18.040Z,9.51
2018-03-15T08:37:18.018Z,9.51
2018-03-15T08:38:17.982Z,9.39
2018-03-15T08:39:17.967Z,9.40
2018-03-15T08:40:18.001Z,9.43
2018-03-15T08:41:17.945Z,9.46
2018-03-15T08:42:17.928Z,9.39
2018-03-15T08:43:17.923Z,9.51
2018-03-15T08:44:17.886Z,9.56
2018-03-15T08:45:17.876Z,9.61
2018-03-15T08:46:17.877Z,9.64
2018-03-15T08:47:17.841Z,9.54
2018-03-15T08:48:17.834Z,9.65
2018-03-15T08:49:17.803Z,9.60
2018-03-15T08:50:17.797Z,9.61
2018-03-15T08:51:17.774Z,9.69
2018-03-15T08:52:17.756Z,9.74
2018-03-15T08:53:17.761Z,9.76
2018-03-15T08:54:17.878Z,9.74
2018-03-15T08:55:17.711Z,9.75
2018-03-15T08:56:17.691Z,9.84
2018-03-15T08:57:17.684Z,10.01
2018-03-15T08:58:17.667Z,10.01
2018-03-15T08:59:17.720Z,10.11
2018-03-15T09:00:17.630Z,10.18
2018-03-15T09:01:17.610Z,10.27
2018-03-15T09:02:17.595Z,10.27
2018-03-15T09:03:17.578Z,10.47
2018-03-15T09:04:17.587Z,10.52
2018-03-15T09:05:17.549Z,10.61
2018-03-15T09:06:17.533Z,10.42
2018-03-15T09:07:17.549Z,10.56
2018-03-15T09:08:17.606Z,10.61
2018-03-15T09:09:17.497Z,10.66
2018-03-15T09:10:17.488Z,10.76
2018-03-15T09:11:17.453Z,10.78
2018-03-15T09:12:17.436Z,10.84
2018-03-15T09:13:17.438Z,10.86
2018-03-15T09:14:17.408Z,10.89
2018-03-15T09:15:17.420Z,10.76
2018-03-15T09:16:17.399Z,10.79
2018-03-15T09:17:17.376Z,10.78
2018-03-15T09:18:17.357Z,10.81
2018-03-15T09:19:17.332Z,10.89
2018-03-15T09:20:17.318Z,10.84
2018-03-15T09:21:17.302Z,10.81
2018-03-15T09:22:17.301Z,10.79
2018-03-15T09:23:17.272Z,10.76
2018-03-15T09:24:17.264Z,10.74
2018-03-15T09:25:17.250Z,10.89
2018-03-15T09:26:17.335Z,10.89
2018-03-15T09:27:17.218Z,11.02
2018-03-15T09:28:17.212Z,11.02
2018-03-15T09:29:17.191Z,11.07
2018-03-15T09:30:17.175Z,11.06
2018-03-15T09:31:17.177Z,11.22
2018-03-15T09:32:17.158Z,11.19
2018-03-15T09:33:17.133Z,11.44
2018-03-15T09:34:17.117Z,11.47
2018-03-15T09:35:17.097Z,11.67
2018-03-15T09:36:17.132Z,11.85
2018-03-15T09:37:17.158Z,12.13
2018-03-15T09:38:17.057Z,12.52
2018-03-15T09:39:17.044Z,12.86
2018-03-15T09:40:17.034Z,12.74
2018-03-15T09:41:17.027Z,13.10
2018-03-15T09:42:17.050Z,13.29
2018-03-15T09:43:17.002Z,13.39
2018-03-15T09:44:16.978Z,13.52
2018-03-15T09:45:16.966Z,13.66
2018-03-15T09:46:17.001Z,13.75
2018-03-15T09:47:17.023Z,13.87
2018-03-15T09:48:16.943Z,13.96
2018-03-15T09:49:16.911Z,14.07
2018-03-15T09:50:16.914Z,14.32
2018-03-15T09:51:16.927Z,14.21
2018-03-15T09:52:16.878Z,14.36
2018-03-15T09:53:16.888Z,14.51
2018-03-15T09:54:16.905Z,14.29
2018-03-15T09:55:16.874Z,14.02
2018-03-15T09:56:16.828Z,13.92
2018-03-15T09:57:16.849Z,13.66
2018-03-15T09:58:16.815Z,13.79
2018-03-15T09:59:16.836Z,13.96
2018-03-15T10:00:16.789Z,13.79
2018-03-15T10:01:16.771Z,13.49
2018-03-15T10:02:16.761Z,13.49
2018-03-15T10:03:16.818Z,13.63
2018-03-15T10:04:16.758Z,13.81
2018-03-15T10:05:16.740Z,13.87
2018-03-15T10:06:16.743Z,14.17
2018-03-15T10:07:16.707Z,14.33
2018-03-15T10:08:16.701Z,14.64
2018-03-15T10:09:16.706Z,14.91
2018-03-15T10:10:16.712Z,14.43
2018-03-15T10:11:16.662Z,14.51
2018-03-15T10:12:16.648Z,14.95
2018-03-15T10:13:16.643Z,15.14
2018-03-15T10:14:16.628Z,15.32
2018-03-15T10:15:16.637Z,15.39
2018-03-15T10:16:16.609Z,14.99
2018-03-15T10:17:16.603Z,15.34
2018-03-15T10:18:16.587Z,15.34
2018-03-15T10:19:16.596Z,15.41
2018-03-15T10:20:16.576Z,15.39
2018-03-15T10:21:16.595Z,15.31
2018-03-15T10:22:16.586Z,15.09
2018-03-15T10:23:16.541Z,14.50
2018-03-15T10:24:16.563Z,14.14
2018-03-15T10:25:26.390Z,13.77
2018-03-15T10:26:16.539Z,13.52
2018-03-15T10:27:16.507Z,13.67
2018-03-15T10:28:16.510Z,14.03
2018-03-15T10:29:16.489Z,14.27
2018-03-15T10:30:16.477Z,14.00
2018-03-15T10:31:16.462Z,13.69
2018-03-15T10:32:16.483Z,13.22
2018-03-15T10:33:16.458Z,13.23
2018-03-15T10:34:16.434Z,13.22
2018-03-15T10:35:16.425Z,13.12
2018-03-15T10:36:16.428Z,13.22
2018-03-15T10:37:16.423Z,13.08
2018-03-15T10:38:16.396Z,13.11
2018-03-15T10:39:16.386Z,13.10
2018-03-15T10:40:16.443Z,13.08
2018-03-15T10:41:16.356Z,13.20
2018-03-15T10:42:16.367Z,13.07
2018-03-15T10:43:16.334Z,13.19
2018-03-15T10:44:16.328Z,13.14
2018-03-15T10:45:16.465Z,13.30
2018-03-15T10:46:16.310Z,13.19
2018-03-15T10:47:16.353Z,13.11
2018-03-15T10:48:16.276Z,13.14
2018-03-15T10:49:16.295Z,13.30
2018-03-15T10:50:18.024Z,13.32
2018-03-15T10:51:16.253Z,13.14
2018-03-15T10:52:16.241Z,13.08
2018-03-15T10:53:16.226Z,13.04
2018-03-15T10:54:16.246Z,12.92
2018-03-15T10:55:16.224Z,12.79
2018-03-15T10:56:16.221Z,12.67
2018-03-15T10:57:16.176Z,12.68
2018-03-15T10:58:16.163Z,12.68
2018-03-15T10:59:16.255Z,12.68
2018-03-15T11:00:16.154Z,12.64
2018-03-15T11:01:16.125Z,12.67
2018-03-15T11:02:16.118Z,12.68
2018-03-15T11:03:16.105Z,12.52
2018-03-15T11:04:16.096Z,12.57
2018-03-15T11:05:16.090Z,12.59
2018-03-15T11:06:16.070Z,12.53
2018-03-15T11:07:16.125Z,12.60
2018-03-15T11:08:16.035Z,12.54
2018-03-15T11:09:16.077Z,12.62
2018-03-15T11:10:16.011Z,12.77
2018-03-15T11:11:15.996Z,12.67
2018-03-15T11:12:15.987Z,12.83
2018-03-15T11:13:15.970Z,12.83
2018-03-15T11:14:15.962Z,12.83
2018-03-15T11:15:15.962Z,12.87
2018-03-15T11:16:15.937Z,12.90
2018-03-15T11:17:15.942Z,12.90
2018-03-15T11:18:15.908Z,12.96
2018-03-15T11:19:15.895Z,13.04
2018-03-15T11:20:15.882Z,13.01
2018-03-15T11:21:15.867Z,13.10
2018-03-15T11:22:15.857Z,13.20
2018-03-15T11:23:15.858Z,13.15
2018-03-15T11:24:15.834Z,13.12
2018-03-15T11:25:15.836Z,13.22
2018-03-15T11:26:15.812Z,13.14
2018-03-15T11:27:15.793Z,13.25
2018-03-15T11:28:15.840Z,13.20
2018-03-15T11:29:15.786Z,13.11
2018-03-15T11:30:15.774Z,13.10
2018-03-15T11:31:15.745Z,13.15
2018-03-15T11:32:15.741Z,13.22
2018-03-15T11:33:15.716Z,13.17
2018-03-15T11:34:15.698Z,13.20
2018-03-15T11:35:15.688Z,13.12
2018-03-15T11:36:15.691Z,13.08
2018-03-15T11:37:15.666Z,13.10
2018-03-15T11:38:15.650Z,13.10
2018-03-15T11:39:15.650Z,13.10
2018-03-15T11:40:15.628Z,13.12
2018-03-15T11:41:15.626Z,13.20
2018-03-15T11:42:15.596Z,13.07
2018-03-15T11:43:15.604Z,13.15
2018-03-15T11:44:15.575Z,13.22
2018-03-15T11:45:15.565Z,13.22
2018-03-15T11:46:15.552Z,13.23
2018-03-15T11:47:15.580Z,13.20
2018-03-15T11:48:15.571Z,13.20
2018-03-15T11:49:15.511Z,13.17
2018-03-15T11:50:15.495Z,13.12
2018-03-15T11:51:15.484Z,13.11
2018-03-15T11:52:15.464Z,13.08
2018-03-15T11:53:15.501Z,13.14
2018-03-15T11:54:15.445Z,13.14
2018-03-15T11:55:15.442Z,13.10
2018-03-15T11:56:15.487Z,13.11
2018-03-15T11:57:15.404Z,13.19
2018-03-15T11:58:15.400Z,13.22
2018-03-15T11:59:15.395Z,13.12
2018-03-15T12:00:15.359Z,13.11
2018-03-15T12:01:15.356Z,13.05
2018-03-15T12:02:15.334Z,13.11
2018-03-15T12:03:15.324Z,13.11
2018-03-15T12:04:15.323Z,13.12
2018-03-15T12:05:15.324Z,13.10
2018-03-15T12:06:15.291Z,13.14
2018-03-15T12:07:15.278Z,13.15
2018-03-15T12:08:15.260Z,13.12
2018-03-15T12:09:15.245Z,13.14
2018-03-15T12:10:15.249Z,13.05
2018-03-15T12:11:15.220Z,13.28
2018-03-15T12:12:15.204Z,13.20
2018-03-15T12:13:15.190Z,13.25
2018-03-15T12:14:15.181Z,13.28
2018-03-15T12:15:15.179Z,13.32
2018-03-15T12:16:15.163Z,13.29
2018-03-15T12:17:15.152Z,13.30
2018-03-15T12:18:15.134Z,13.30
2018-03-15T12:19:15.110Z,13.32
2018-03-15T12:20:15.104Z,13.19
2018-03-15T12:21:15.104Z,13.22
2018-03-15T12:22:15.085Z,13.28
2018-03-15T12:23:15.079Z,13.22
2018-03-15T12:24:15.065Z,13.26
2018-03-15T12:25:15.037Z,13.30
2018-03-15T12:26:15.033Z,13.32
2018-03-15T12:27:15.011Z,13.33
2018-03-15T12:28:14.989Z,13.29
2018-03-15T12:29:14.986Z,13.39
2018-03-15T12:30:14.990Z,13.33
2018-03-15T12:31:14.985Z,13.36
2018-03-15T12:32:14.953Z,13.42
2018-03-15T12:33:14.926Z,13.46
2018-03-15T12:34:14.928Z,13.44
2018-03-15T12:35:14.901Z,13.45
2018-03-15T12:36:14.885Z,13.51
2018-03-15T12:37:14.898Z,13.36
2018-03-15T12:38:14.862Z,13.33
2018-03-15T12:39:14.843Z,13.36
2018-03-15T12:40:14.826Z,13.30
2018-03-15T12:41:14.836Z,13.28
2018-03-15T12:42:14.820Z,13.28
2018-03-15T12:43:14.800Z,13.22
2018-03-15T12:44:14.778Z,13.30
2018-03-15T12:45:14.768Z,13.33
2018-03-15T12:46:14.770Z,13.32
2018-03-15T12:47:14.743Z,13.17
2018-03-15T12:48:14.742Z,13.14
2018-03-15T12:49:14.735Z,13.32
2018-03-15T12:50:14.700Z,13.38
2018-03-15T12:51:14.704Z,13.38
2018-03-15T12:52:14.690Z,13.36
2018-03-15T12:53:14.669Z,13.36
2018-03-15T12:54:14.649Z,13.36
2018-03-15T12:55:14.644Z,13.38
2018-03-15T12:56:14.619Z,13.33
2018-03-15T12:57:14.630Z,13.36
2018-03-15T12:58:14.619Z,13.30
2018-03-15T12:59:14.601Z,13.33
2018-03-15T13:00:14.574Z,13.30
2018-03-15T13:01:14.567Z,13.33
2018-03-15T13:02:14.543Z,13.29
2018-03-15T13:03:14.548Z,13.22
2018-03-15T13:04:14.515Z,13.14
2018-03-15T13:05:14.505Z,13.29
2018-03-15T13:06:14.489Z,13.11
2018-03-15T13:07:14.471Z,13.19
2018-03-15T13:08:14.463Z,13.22
2018-03-15T13:09:14.471Z,13.19
2018-03-15T13:10:14.451Z,13.23